sensor_id;sensor_type;location;lat;lon;timestamp;P1;durP1;ratioP1;P2;durP2;ratioP2
80675;SDS011;70041;46.088;18.268;2023-05-19T00:01:56;20.85;;;8.90;;
80675;SDS011;70041;46.088;18.268;2023-05-19T00:04:24;16.45;;;8.32;;
80675;SDS011;70041;46.088;18.268;2023-05-19T00:06:50;17.23;;;9.25;;
80675;SDS011;70041;46.088;18.268;2023-05-19T00:09:16;17.17;;;8.27;;
80675;SDS011;70041;46.088;18.268;2023-05-19T00:11:42;17.13;;;8.32;;
80675;SDS011;70041;46.088;18.268;2023-05-19T00:14:08;18.10;;;8.63;;
80675;SDS011;70041;46.088;18.268;2023-05-19T00:16:34;16.30;;;7.97;;
80675;SDS011;70041;46.088;18.268;2023-05-19T00:19:04;16.90;;;7.78;;
80675;SDS011;70041;46.088;18.268;2023-05-19T00:21:33;16.73;;;8.38;;
80675;SDS011;70041;46.088;18.268;2023-05-19T00:24:01;16.92;;;8.45;;
80675;SDS011;70041;46.088;18.268;2023-05-19T00:26:27;17.08;;;8.20;;
80675;SDS011;70041;46.088;18.268;2023-05-19T00:28:52;16.93;;;7.93;;
80675;SDS011;70041;46.088;18.268;2023-05-19T00:31:18;17.40;;;8.63;;
80675;SDS011;70041;46.088;18.268;2023-05-19T00:33:43;17.98;;;8.57;;
80675;SDS011;70041;46.088;18.268;2023-05-19T00:36:09;15.63;;;7.93;;
80675;SDS011;70041;46.088;18.268;2023-05-19T00:38:35;17.93;;;8.47;;
80675;SDS011;70041;46.088;18.268;2023-05-19T00:41:01;14.85;;;7.78;;
80675;SDS011;70041;46.088;18.268;2023-05-19T00:43:27;13.80;;;7.13;;
80675;SDS011;70041;46.088;18.268;2023-05-19T00:45:54;15.82;;;7.50;;
80675;SDS011;70041;46.088;18.268;2023-05-19T00:48:20;14.13;;;7.20;;
80675;SDS011;70041;46.088;18.268;2023-05-19T00:50:45;14.57;;;7.13;;
80675;SDS011;70041;46.088;18.268;2023-05-19T00:53:12;13.17;;;6.37;;
80675;SDS011;70041;46.088;18.268;2023-05-19T00:55:41;12.55;;;6.40;;
80675;SDS011;70041;46.088;18.268;2023-05-19T00:58:08;12.05;;;6.20;;
80675;SDS011;70041;46.088;18.268;2023-05-19T01:00:35;12.38;;;6.35;;
80675;SDS011;70041;46.088;18.268;2023-05-19T01:03:01;12.57;;;6.70;;
80675;SDS011;70041;46.088;18.268;2023-05-19T01:05:27;11.10;;;5.60;;
80675;SDS011;70041;46.088;18.268;2023-05-19T01:07:52;11.23;;;6.10;;
80675;SDS011;70041;46.088;18.268;2023-05-19T01:10:20;9.48;;;4.80;;
80675;SDS011;70041;46.088;18.268;2023-05-19T01:12:46;10.73;;;6.00;;
80675;SDS011;70041;46.088;18.268;2023-05-19T01:15:12;11.82;;;5.80;;
80675;SDS011;70041;46.088;18.268;2023-05-19T01:20:11;10.17;;;5.50;;
80675;SDS011;70041;46.088;18.268;2023-05-19T01:30:51;11.75;;;6.07;;
80675;SDS011;70041;46.088;18.268;2023-05-19T01:33:18;10.77;;;5.27;;
80675;SDS011;70041;46.088;18.268;2023-05-19T01:35:46;10.27;;;5.57;;
80675;SDS011;70041;46.088;18.268;2023-05-19T01:38:12;12.55;;;5.20;;
80675;SDS011;70041;46.088;18.268;2023-05-19T01:40:41;12.18;;;6.13;;
80675;SDS011;70041;46.088;18.268;2023-05-19T01:43:15;11.13;;;5.68;;
80675;SDS011;70041;46.088;18.268;2023-05-19T01:45:42;11.17;;;5.63;;
80675;SDS011;70041;46.088;18.268;2023-05-19T01:48:09;10.95;;;5.72;;
80675;SDS011;70041;46.088;18.268;2023-05-19T01:50:36;11.52;;;5.55;;
80675;SDS011;70041;46.088;18.268;2023-05-19T01:53:02;9.93;;;5.57;;
80675;SDS011;70041;46.088;18.268;2023-05-19T01:55:28;9.90;;;5.67;;
80675;SDS011;70041;46.088;18.268;2023-05-19T02:08:26;9.85;;;5.15;;
80675;SDS011;70041;46.088;18.268;2023-05-19T02:11:02;10.38;;;5.53;;
80675;SDS011;70041;46.088;18.268;2023-05-19T02:13:35;10.60;;;5.00;;
80675;SDS011;70041;46.088;18.268;2023-05-19T02:16:06;11.30;;;5.65;;
80675;SDS011;70041;46.088;18.268;2023-05-19T02:18:32;12.02;;;5.80;;
80675;SDS011;70041;46.088;18.268;2023-05-19T02:20:59;10.55;;;5.40;;
80675;SDS011;70041;46.088;18.268;2023-05-19T02:23:25;11.20;;;5.70;;
80675;SDS011;70041;46.088;18.268;2023-05-19T02:25:50;10.65;;;5.30;;
80675;SDS011;70041;46.088;18.268;2023-05-19T02:28:16;10.07;;;5.50;;
80675;SDS011;70041;46.088;18.268;2023-05-19T02:30:42;10.40;;;5.03;;
80675;SDS011;70041;46.088;18.268;2023-05-19T02:33:07;9.80;;;4.73;;
80675;SDS011;70041;46.088;18.268;2023-05-19T02:35:35;9.50;;;4.68;;
80675;SDS011;70041;46.088;18.268;2023-05-19T02:38:01;9.80;;;5.37;;
80675;SDS011;70041;46.088;18.268;2023-05-19T02:40:26;9.80;;;5.30;;
80675;SDS011;70041;46.088;18.268;2023-05-19T02:42:52;10.40;;;5.40;;
80675;SDS011;70041;46.088;18.268;2023-05-19T02:45:17;9.80;;;5.00;;
80675;SDS011;70041;46.088;18.268;2023-05-19T02:47:43;10.38;;;4.68;;
80675;SDS011;70041;46.088;18.268;2023-05-19T02:50:08;10.27;;;5.13;;
80675;SDS011;70041;46.088;18.268;2023-05-19T02:52:34;10.37;;;4.70;;
80675;SDS011;70041;46.088;18.268;2023-05-19T02:54:59;9.50;;;5.30;;
80675;SDS011;70041;46.088;18.268;2023-05-19T02:57:24;10.07;;;4.43;;
80675;SDS011;70041;46.088;18.268;2023-05-19T02:59:50;10.43;;;4.83;;
80675;SDS011;70041;46.088;18.268;2023-05-19T03:02:16;9.10;;;4.57;;
80675;SDS011;70041;46.088;18.268;2023-05-19T03:04:42;9.63;;;4.70;;
80675;SDS011;70041;46.088;18.268;2023-05-19T03:07:08;10.20;;;4.55;;
80675;SDS011;70041;46.088;18.268;2023-05-19T03:09:36;9.95;;;4.90;;
80675;SDS011;70041;46.088;18.268;2023-05-19T03:12:02;9.55;;;4.57;;
80675;SDS011;70041;46.088;18.268;2023-05-19T03:14:28;10.43;;;5.82;;
80675;SDS011;70041;46.088;18.268;2023-05-19T03:16:54;9.88;;;4.78;;
80675;SDS011;70041;46.088;18.268;2023-05-19T03:19:23;12.27;;;4.83;;
80675;SDS011;70041;46.088;18.268;2023-05-19T03:21:49;10.00;;;5.20;;
80675;SDS011;70041;46.088;18.268;2023-05-19T03:24:15;13.77;;;6.90;;
80675;SDS011;70041;46.088;18.268;2023-05-19T03:26:41;14.03;;;7.83;;
80675;SDS011;70041;46.088;18.268;2023-05-19T03:29:06;16.45;;;7.97;;
80675;SDS011;70041;46.088;18.268;2023-05-19T03:31:32;22.03;;;7.90;;
80675;SDS011;70041;46.088;18.268;2023-05-19T03:33:57;35.23;;;9.87;;
80675;SDS011;70041;46.088;18.268;2023-05-19T03:36:23;28.20;;;10.70;;
80675;SDS011;70041;46.088;18.268;2023-05-19T03:38:48;23.10;;;9.83;;
80675;SDS011;70041;46.088;18.268;2023-05-19T03:41:14;55.88;;;9.27;;
80675;SDS011;70041;46.088;18.268;2023-05-19T03:43:39;38.40;;;9.33;;
80675;SDS011;70041;46.088;18.268;2023-05-19T03:46:04;41.87;;;10.33;;
80675;SDS011;70041;46.088;18.268;2023-05-19T03:48:30;29.23;;;8.97;;
80675;SDS011;70041;46.088;18.268;2023-05-19T03:50:55;16.43;;;8.83;;
80675;SDS011;70041;46.088;18.268;2023-05-19T03:53:21;17.30;;;9.13;;
80675;SDS011;70041;46.088;18.268;2023-05-19T03:55:47;19.60;;;11.43;;
80675;SDS011;70041;46.088;18.268;2023-05-19T03:58:13;29.95;;;17.35;;
80675;SDS011;70041;46.088;18.268;2023-05-19T04:00:40;28.35;;;15.93;;
80675;SDS011;70041;46.088;18.268;2023-05-19T04:03:05;35.38;;;18.95;;
80675;SDS011;70041;46.088;18.268;2023-05-19T04:05:32;43.30;;;22.75;;
80675;SDS011;70041;46.088;18.268;2023-05-19T04:07:58;25.90;;;12.70;;
80675;SDS011;70041;46.088;18.268;2023-05-19T04:10:23;20.23;;;10.77;;
80675;SDS011;70041;46.088;18.268;2023-05-19T04:12:49;21.10;;;12.17;;
80675;SDS011;70041;46.088;18.268;2023-05-19T04:15:14;27.27;;;14.50;;
80675;SDS011;70041;46.088;18.268;2023-05-19T04:17:39;32.03;;;17.73;;
80675;SDS011;70041;46.088;18.268;2023-05-19T04:20:05;35.40;;;18.63;;
80675;SDS011;70041;46.088;18.268;2023-05-19T04:22:31;27.73;;;16.38;;
80675;SDS011;70041;46.088;18.268;2023-05-19T04:24:57;28.30;;;17.27;;
80675;SDS011;70041;46.088;18.268;2023-05-19T04:27:23;28.75;;;16.65;;
80675;SDS011;70041;46.088;18.268;2023-05-19T04:29:48;19.52;;;11.02;;
80675;SDS011;70041;46.088;18.268;2023-05-19T04:32:14;17.70;;;8.33;;
80675;SDS011;70041;46.088;18.268;2023-05-19T04:34:41;17.15;;;8.85;;
80675;SDS011;70041;46.088;18.268;2023-05-19T04:37:09;14.60;;;7.95;;
80675;SDS011;70041;46.088;18.268;2023-05-19T04:39:40;12.47;;;6.03;;
80675;SDS011;70041;46.088;18.268;2023-05-19T04:42:08;11.93;;;5.70;;
80675;SDS011;70041;46.088;18.268;2023-05-19T04:44:34;8.50;;;3.83;;
80675;SDS011;70041;46.088;18.268;2023-05-19T04:47:02;8.07;;;3.60;;
80675;SDS011;70041;46.088;18.268;2023-05-19T04:49:30;7.72;;;3.78;;
80675;SDS011;70041;46.088;18.268;2023-05-19T04:51:56;7.87;;;3.70;;
80675;SDS011;70041;46.088;18.268;2023-05-19T04:54:22;10.32;;;3.70;;
80675;SDS011;70041;46.088;18.268;2023-05-19T04:56:47;9.57;;;4.10;;
80675;SDS011;70041;46.088;18.268;2023-05-19T04:59:12;11.10;;;5.40;;
80675;SDS011;70041;46.088;18.268;2023-05-19T05:01:38;8.90;;;4.57;;
80675;SDS011;70041;46.088;18.268;2023-05-19T05:04:04;7.97;;;4.03;;
80675;SDS011;70041;46.088;18.268;2023-05-19T05:06:31;7.97;;;4.30;;
80675;SDS011;70041;46.088;18.268;2023-05-19T05:08:57;9.88;;;4.35;;
80675;SDS011;70041;46.088;18.268;2023-05-19T05:11:23;8.57;;;4.30;;
80675;SDS011;70041;46.088;18.268;2023-05-19T05:13:49;8.32;;;4.38;;
80675;SDS011;70041;46.088;18.268;2023-05-19T05:16:15;9.05;;;4.10;;
80675;SDS011;70041;46.088;18.268;2023-05-19T05:18:41;7.80;;;4.13;;
80675;SDS011;70041;46.088;18.268;2023-05-19T05:21:06;7.90;;;4.10;;
80675;SDS011;70041;46.088;18.268;2023-05-19T05:23:32;8.02;;;3.97;;
80675;SDS011;70041;46.088;18.268;2023-05-19T05:25:58;7.28;;;3.20;;
80675;SDS011;70041;46.088;18.268;2023-05-19T05:28:25;6.68;;;3.35;;
80675;SDS011;70041;46.088;18.268;2023-05-19T05:30:50;6.72;;;3.53;;
80675;SDS011;70041;46.088;18.268;2023-05-19T05:33:15;6.73;;;3.67;;
80675;SDS011;70041;46.088;18.268;2023-05-19T05:35:42;7.90;;;4.22;;
80675;SDS011;70041;46.088;18.268;2023-05-19T05:38:07;11.13;;;5.60;;
80675;SDS011;70041;46.088;18.268;2023-05-19T05:40:33;11.70;;;5.63;;
80675;SDS011;70041;46.088;18.268;2023-05-19T05:42:58;11.52;;;5.05;;
80675;SDS011;70041;46.088;18.268;2023-05-19T05:45:24;12.48;;;6.60;;
80675;SDS011;70041;46.088;18.268;2023-05-19T05:47:50;14.17;;;7.00;;
80675;SDS011;70041;46.088;18.268;2023-05-19T05:50:16;14.55;;;6.90;;
80675;SDS011;70041;46.088;18.268;2023-05-19T05:52:43;13.20;;;6.97;;
80675;SDS011;70041;46.088;18.268;2023-05-19T05:55:11;12.90;;;7.30;;
80675;SDS011;70041;46.088;18.268;2023-05-19T05:57:37;13.00;;;7.30;;
80675;SDS011;70041;46.088;18.268;2023-05-19T06:00:05;13.95;;;7.03;;
80675;SDS011;70041;46.088;18.268;2023-05-19T06:02:39;12.52;;;7.38;;
80675;SDS011;70041;46.088;18.268;2023-05-19T06:05:10;12.88;;;7.00;;
80675;SDS011;70041;46.088;18.268;2023-05-19T06:07:36;14.48;;;8.18;;
80675;SDS011;70041;46.088;18.268;2023-05-19T06:10:03;11.53;;;6.60;;
80675;SDS011;70041;46.088;18.268;2023-05-19T06:12:29;18.65;;;8.75;;
80675;SDS011;70041;46.088;18.268;2023-05-19T06:14:54;14.13;;;8.33;;
80675;SDS011;70041;46.088;18.268;2023-05-19T06:17:19;17.75;;;8.93;;
80675;SDS011;70041;46.088;18.268;2023-05-19T06:19:45;13.80;;;8.20;;
80675;SDS011;70041;46.088;18.268;2023-05-19T06:22:10;16.60;;;8.87;;
80675;SDS011;70041;46.088;18.268;2023-05-19T06:24:35;15.23;;;8.23;;
80675;SDS011;70041;46.088;18.268;2023-05-19T06:27:01;14.47;;;8.60;;
80675;SDS011;70041;46.088;18.268;2023-05-19T06:29:26;15.35;;;8.60;;
80675;SDS011;70041;46.088;18.268;2023-05-19T06:31:52;14.73;;;7.57;;
80675;SDS011;70041;46.088;18.268;2023-05-19T06:34:17;12.60;;;7.57;;
80675;SDS011;70041;46.088;18.268;2023-05-19T06:36:42;12.33;;;7.43;;
80675;SDS011;70041;46.088;18.268;2023-05-19T06:39:08;13.97;;;7.77;;
80675;SDS011;70041;46.088;18.268;2023-05-19T06:41:33;17.48;;;8.60;;
80675;SDS011;70041;46.088;18.268;2023-05-19T06:43:59;13.33;;;7.50;;
80675;SDS011;70041;46.088;18.268;2023-05-19T06:46:24;14.47;;;7.97;;
80675;SDS011;70041;46.088;18.268;2023-05-19T06:48:50;12.53;;;7.50;;
80675;SDS011;70041;46.088;18.268;2023-05-19T06:51:15;12.82;;;7.85;;
80675;SDS011;70041;46.088;18.268;2023-05-19T06:53:45;13.93;;;8.13;;
80675;SDS011;70041;46.088;18.268;2023-05-19T06:56:11;15.57;;;8.77;;
80675;SDS011;70041;46.088;18.268;2023-05-19T06:58:37;12.52;;;7.18;;
80675;SDS011;70041;46.088;18.268;2023-05-19T07:01:03;18.27;;;7.57;;
80675;SDS011;70041;46.088;18.268;2023-05-19T07:03:29;17.00;;;10.07;;
80675;SDS011;70041;46.088;18.268;2023-05-19T07:05:55;18.45;;;8.05;;
80675;SDS011;70041;46.088;18.268;2023-05-19T07:08:20;23.15;;;10.57;;
80675;SDS011;70041;46.088;18.268;2023-05-19T07:10:45;14.80;;;8.10;;
80675;SDS011;70041;46.088;18.268;2023-05-19T07:13:11;13.57;;;7.47;;
80675;SDS011;70041;46.088;18.268;2023-05-19T07:15:36;13.00;;;6.43;;
80675;SDS011;70041;46.088;18.268;2023-05-19T07:18:02;10.10;;;6.10;;
80675;SDS011;70041;46.088;18.268;2023-05-19T07:20:27;8.47;;;3.97;;
80675;SDS011;70041;46.088;18.268;2023-05-19T07:22:52;7.73;;;4.10;;
80675;SDS011;70041;46.088;18.268;2023-05-19T07:25:18;9.40;;;4.23;;
80675;SDS011;70041;46.088;18.268;2023-05-19T07:27:43;8.07;;;4.05;;
80675;SDS011;70041;46.088;18.268;2023-05-19T07:30:09;8.60;;;4.40;;
80675;SDS011;70041;46.088;18.268;2023-05-19T07:32:35;9.32;;;4.53;;
80675;SDS011;70041;46.088;18.268;2023-05-19T07:35:01;10.63;;;5.30;;
80675;SDS011;70041;46.088;18.268;2023-05-19T07:37:26;9.70;;;4.95;;
80675;SDS011;70041;46.088;18.268;2023-05-19T07:39:52;11.13;;;5.43;;
80675;SDS011;70041;46.088;18.268;2023-05-19T07:42:17;11.30;;;5.80;;
80675;SDS011;70041;46.088;18.268;2023-05-19T07:44:43;10.67;;;5.60;;
80675;SDS011;70041;46.088;18.268;2023-05-19T07:47:08;11.13;;;5.43;;
80675;SDS011;70041;46.088;18.268;2023-05-19T07:49:34;12.40;;;5.93;;
80675;SDS011;70041;46.088;18.268;2023-05-19T07:51:59;12.57;;;5.53;;
80675;SDS011;70041;46.088;18.268;2023-05-19T07:54:25;12.88;;;6.45;;
80675;SDS011;70041;46.088;18.268;2023-05-19T07:56:50;12.77;;;6.47;;
80675;SDS011;70041;46.088;18.268;2023-05-19T07:59:16;13.27;;;6.40;;
80675;SDS011;70041;46.088;18.268;2023-05-19T08:01:41;13.23;;;6.38;;
80675;SDS011;70041;46.088;18.268;2023-05-19T08:04:07;12.23;;;6.10;;
80675;SDS011;70041;46.088;18.268;2023-05-19T08:06:32;11.73;;;6.03;;
80675;SDS011;70041;46.088;18.268;2023-05-19T08:08:59;12.18;;;6.18;;
80675;SDS011;70041;46.088;18.268;2023-05-19T08:11:25;12.13;;;6.40;;
80675;SDS011;70041;46.088;18.268;2023-05-19T08:13:50;14.30;;;6.43;;
80675;SDS011;70041;46.088;18.268;2023-05-19T08:16:16;11.98;;;6.68;;
80675;SDS011;70041;46.088;18.268;2023-05-19T08:18:41;11.63;;;6.13;;
80675;SDS011;70041;46.088;18.268;2023-05-19T08:21:07;11.27;;;5.87;;
80675;SDS011;70041;46.088;18.268;2023-05-19T08:23:33;11.85;;;5.78;;
80675;SDS011;70041;46.088;18.268;2023-05-19T08:25:59;11.90;;;6.47;;
80675;SDS011;70041;46.088;18.268;2023-05-19T08:28:24;11.32;;;6.18;;
80675;SDS011;70041;46.088;18.268;2023-05-19T08:30:50;11.70;;;6.00;;
80675;SDS011;70041;46.088;18.268;2023-05-19T08:33:16;12.68;;;6.45;;
80675;SDS011;70041;46.088;18.268;2023-05-19T08:35:44;12.43;;;6.47;;
80675;SDS011;70041;46.088;18.268;2023-05-19T08:38:10;11.67;;;5.73;;
80675;SDS011;70041;46.088;18.268;2023-05-19T08:40:36;12.90;;;6.60;;
80675;SDS011;70041;46.088;18.268;2023-05-19T08:43:02;10.83;;;5.93;;
80675;SDS011;70041;46.088;18.268;2023-05-19T08:45:27;12.15;;;6.68;;
80675;SDS011;70041;46.088;18.268;2023-05-19T08:47:53;12.48;;;6.40;;
80675;SDS011;70041;46.088;18.268;2023-05-19T08:50:21;12.13;;;6.20;;
80675;SDS011;70041;46.088;18.268;2023-05-19T08:58:18;14.30;;;6.88;;
80675;SDS011;70041;46.088;18.268;2023-05-19T09:00:46;11.68;;;5.72;;
80675;SDS011;70041;46.088;18.268;2023-05-19T09:03:12;11.07;;;6.23;;
80675;SDS011;70041;46.088;18.268;2023-05-19T09:05:39;13.27;;;6.82;;
80675;SDS011;70041;46.088;18.268;2023-05-19T09:08:05;13.20;;;7.72;;
80675;SDS011;70041;46.088;18.268;2023-05-19T09:10:31;14.23;;;7.10;;
80675;SDS011;70041;46.088;18.268;2023-05-19T09:12:56;13.07;;;6.83;;
80675;SDS011;70041;46.088;18.268;2023-05-19T09:15:25;12.37;;;6.80;;
80675;SDS011;70041;46.088;18.268;2023-05-19T09:18:01;10.80;;;6.25;;
80675;SDS011;70041;46.088;18.268;2023-05-19T09:20:31;13.98;;;7.70;;
80675;SDS011;70041;46.088;18.268;2023-05-19T09:22:56;13.37;;;6.60;;
80675;SDS011;70041;46.088;18.268;2023-05-19T09:25:24;12.90;;;7.65;;
80675;SDS011;70041;46.088;18.268;2023-05-19T09:27:50;13.38;;;7.40;;
80675;SDS011;70041;46.088;18.268;2023-05-19T09:30:18;12.57;;;7.13;;
80675;SDS011;70041;46.088;18.268;2023-05-19T09:32:44;11.57;;;6.90;;
80675;SDS011;70041;46.088;18.268;2023-05-19T09:35:10;12.95;;;7.30;;
80675;SDS011;70041;46.088;18.268;2023-05-19T09:37:40;14.68;;;8.30;;
80675;SDS011;70041;46.088;18.268;2023-05-19T09:40:06;13.80;;;6.88;;
80675;SDS011;70041;46.088;18.268;2023-05-19T09:42:33;11.67;;;7.00;;
80675;SDS011;70041;46.088;18.268;2023-05-19T09:45:02;11.15;;;6.80;;
80675;SDS011;70041;46.088;18.268;2023-05-19T09:47:35;11.00;;;6.40;;
80675;SDS011;70041;46.088;18.268;2023-05-19T09:50:05;10.30;;;5.60;;
80675;SDS011;70041;46.088;18.268;2023-05-19T09:52:36;10.18;;;6.22;;
80675;SDS011;70041;46.088;18.268;2023-05-19T09:55:03;11.20;;;6.73;;
80675;SDS011;70041;46.088;18.268;2023-05-19T09:57:33;11.98;;;6.00;;
80675;SDS011;70041;46.088;18.268;2023-05-19T10:00:02;10.23;;;5.78;;
80675;SDS011;70041;46.088;18.268;2023-05-19T10:02:57;12.27;;;6.13;;
80675;SDS011;70041;46.088;18.268;2023-05-19T10:05:25;10.35;;;6.03;;
80675;SDS011;70041;46.088;18.268;2023-05-19T10:07:52;8.97;;;4.93;;
80675;SDS011;70041;46.088;18.268;2023-05-19T10:10:20;9.02;;;5.25;;
80675;SDS011;70041;46.088;18.268;2023-05-19T10:12:46;8.65;;;4.65;;
80675;SDS011;70041;46.088;18.268;2023-05-19T10:15:13;8.95;;;4.70;;
80675;SDS011;70041;46.088;18.268;2023-05-19T10:17:43;10.75;;;5.30;;
80675;SDS011;70041;46.088;18.268;2023-05-19T10:20:10;8.47;;;4.67;;
80675;SDS011;70041;46.088;18.268;2023-05-19T10:22:40;7.43;;;4.13;;
80675;SDS011;70041;46.088;18.268;2023-05-19T10:25:06;8.82;;;4.32;;
80675;SDS011;70041;46.088;18.268;2023-05-19T10:27:34;9.05;;;4.38;;
80675;SDS011;70041;46.088;18.268;2023-05-19T10:30:04;7.25;;;4.18;;
80675;SDS011;70041;46.088;18.268;2023-05-19T10:32:33;6.77;;;3.63;;
80675;SDS011;70041;46.088;18.268;2023-05-19T10:45:59;7.77;;;3.37;;
80675;SDS011;70041;46.088;18.268;2023-05-19T10:48:24;6.47;;;3.22;;
80675;SDS011;70041;46.088;18.268;2023-05-19T10:50:53;7.53;;;3.73;;
80675;SDS011;70041;46.088;18.268;2023-05-19T10:53:20;6.72;;;3.83;;
80675;SDS011;70041;46.088;18.268;2023-05-19T10:58:36;7.37;;;4.10;;
80675;SDS011;70041;46.088;18.268;2023-05-19T11:01:20;7.10;;;3.92;;
80675;SDS011;70041;46.088;18.268;2023-05-19T11:03:52;6.63;;;3.50;;
80675;SDS011;70041;46.088;18.268;2023-05-19T11:06:25;8.80;;;3.20;;
80675;SDS011;70041;46.088;18.268;2023-05-19T11:11:24;6.70;;;3.10;;
80675;SDS011;70041;46.088;18.268;2023-05-19T11:13:54;9.23;;;3.65;;
80675;SDS011;70041;46.088;18.268;2023-05-19T11:16:33;6.28;;;3.50;;
80675;SDS011;70041;46.088;18.268;2023-05-19T11:18:58;7.20;;;3.50;;
80675;SDS011;70041;46.088;18.268;2023-05-19T11:21:39;10.03;;;3.90;;
80675;SDS011;70041;46.088;18.268;2023-05-19T11:24:08;8.30;;;3.50;;
80675;SDS011;70041;46.088;18.268;2023-05-19T11:26:40;7.57;;;3.80;;
80675;SDS011;70041;46.088;18.268;2023-05-19T11:29:07;5.90;;;3.20;;
80675;SDS011;70041;46.088;18.268;2023-05-19T11:31:33;7.10;;;3.47;;
80675;SDS011;70041;46.088;18.268;2023-05-19T11:34:00;6.60;;;3.33;;
80675;SDS011;70041;46.088;18.268;2023-05-19T11:36:26;9.18;;;3.85;;
80675;SDS011;70041;46.088;18.268;2023-05-19T11:38:53;6.72;;;3.50;;
80675;SDS011;70041;46.088;18.268;2023-05-19T11:41:19;7.20;;;4.03;;
80675;SDS011;70041;46.088;18.268;2023-05-19T11:43:46;7.17;;;3.77;;
80675;SDS011;70041;46.088;18.268;2023-05-19T11:46:12;6.18;;;3.70;;
80675;SDS011;70041;46.088;18.268;2023-05-19T11:48:37;8.15;;;3.47;;
80675;SDS011;70041;46.088;18.268;2023-05-19T11:51:04;6.97;;;4.03;;
80675;SDS011;70041;46.088;18.268;2023-05-19T11:53:30;7.50;;;3.90;;
80675;SDS011;70041;46.088;18.268;2023-05-19T11:56:01;8.55;;;3.92;;
80675;SDS011;70041;46.088;18.268;2023-05-19T11:58:27;7.30;;;3.90;;
80675;SDS011;70041;46.088;18.268;2023-05-19T12:00:53;7.03;;;3.53;;
80675;SDS011;70041;46.088;18.268;2023-05-19T12:03:21;8.80;;;3.60;;
80675;SDS011;70041;46.088;18.268;2023-05-19T12:05:51;7.38;;;3.53;;
80675;SDS011;70041;46.088;18.268;2023-05-19T12:08:17;6.00;;;3.37;;
80675;SDS011;70041;46.088;18.268;2023-05-19T12:10:43;7.75;;;3.30;;
80675;SDS011;70041;46.088;18.268;2023-05-19T12:13:13;7.25;;;3.30;;
80675;SDS011;70041;46.088;18.268;2023-05-19T12:15:39;9.77;;;3.87;;
80675;SDS011;70041;46.088;18.268;2023-05-19T12:18:04;8.03;;;3.60;;
80675;SDS011;70041;46.088;18.268;2023-05-19T12:20:30;6.13;;;3.30;;
80675;SDS011;70041;46.088;18.268;2023-05-19T12:22:59;7.45;;;3.38;;
80675;SDS011;70041;46.088;18.268;2023-05-19T12:25:25;8.60;;;3.60;;
80675;SDS011;70041;46.088;18.268;2023-05-19T12:27:50;7.35;;;3.33;;
80675;SDS011;70041;46.088;18.268;2023-05-19T12:30:23;7.75;;;3.50;;
80675;SDS011;70041;46.088;18.268;2023-05-19T12:32:52;7.07;;;3.43;;
80675;SDS011;70041;46.088;18.268;2023-05-19T12:35:18;13.85;;;3.60;;
80675;SDS011;70041;46.088;18.268;2023-05-19T12:37:44;6.57;;;3.50;;
80675;SDS011;70041;46.088;18.268;2023-05-19T12:40:13;9.80;;;3.90;;
80675;SDS011;70041;46.088;18.268;2023-05-19T12:42:42;8.27;;;3.90;;
80675;SDS011;70041;46.088;18.268;2023-05-19T12:45:08;7.83;;;4.40;;
80675;SDS011;70041;46.088;18.268;2023-05-19T12:47:34;7.47;;;3.47;;
80675;SDS011;70041;46.088;18.268;2023-05-19T12:50:04;7.77;;;3.30;;
80675;SDS011;70041;46.088;18.268;2023-05-19T12:52:33;7.57;;;3.85;;
80675;SDS011;70041;46.088;18.268;2023-05-19T12:55:06;7.20;;;3.50;;
80675;SDS011;70041;46.088;18.268;2023-05-19T12:57:38;7.88;;;3.55;;
80675;SDS011;70041;46.088;18.268;2023-05-19T13:00:05;6.05;;;3.53;;
80675;SDS011;70041;46.088;18.268;2023-05-19T13:02:35;6.67;;;3.40;;
80675;SDS011;70041;46.088;18.268;2023-05-19T13:05:18;7.15;;;3.90;;
80675;SDS011;70041;46.088;18.268;2023-05-19T13:08:00;6.03;;;2.97;;
80675;SDS011;70041;46.088;18.268;2023-05-19T13:10:30;6.28;;;3.58;;
80675;SDS011;70041;46.088;18.268;2023-05-19T13:12:56;5.73;;;3.23;;
80675;SDS011;70041;46.088;18.268;2023-05-19T13:15:23;6.90;;;3.35;;
80675;SDS011;70041;46.088;18.268;2023-05-19T13:17:50;6.47;;;3.35;;
80675;SDS011;70041;46.088;18.268;2023-05-19T13:20:16;7.60;;;3.07;;
80675;SDS011;70041;46.088;18.268;2023-05-19T13:22:41;6.28;;;3.30;;
80675;SDS011;70041;46.088;18.268;2023-05-19T13:25:07;6.40;;;3.20;;
80675;SDS011;70041;46.088;18.268;2023-05-19T13:27:33;8.27;;;3.58;;
80675;SDS011;70041;46.088;18.268;2023-05-19T13:29:59;8.27;;;3.47;;
80675;SDS011;70041;46.088;18.268;2023-05-19T13:32:25;6.63;;;2.95;;
80675;SDS011;70041;46.088;18.268;2023-05-19T13:34:50;7.00;;;3.60;;
80675;SDS011;70041;46.088;18.268;2023-05-19T13:37:15;6.73;;;3.10;;
80675;SDS011;70041;46.088;18.268;2023-05-19T13:39:41;7.40;;;3.67;;
80675;SDS011;70041;46.088;18.268;2023-05-19T13:42:06;8.37;;;3.50;;
80675;SDS011;70041;46.088;18.268;2023-05-19T13:44:32;6.20;;;3.60;;
80675;SDS011;70041;46.088;18.268;2023-05-19T13:46:57;6.68;;;3.60;;
80675;SDS011;70041;46.088;18.268;2023-05-19T13:49:23;7.90;;;3.57;;
80675;SDS011;70041;46.088;18.268;2023-05-19T13:51:48;6.97;;;3.90;;
80675;SDS011;70041;46.088;18.268;2023-05-19T13:54:14;6.28;;;3.15;;
80675;SDS011;70041;46.088;18.268;2023-05-19T13:56:39;7.33;;;3.03;;
80675;SDS011;70041;46.088;18.268;2023-05-19T13:59:05;6.67;;;3.43;;
80675;SDS011;70041;46.088;18.268;2023-05-19T14:01:31;6.97;;;3.63;;
80675;SDS011;70041;46.088;18.268;2023-05-19T14:03:56;5.97;;;3.63;;
80675;SDS011;70041;46.088;18.268;2023-05-19T14:06:22;7.30;;;3.30;;
80675;SDS011;70041;46.088;18.268;2023-05-19T14:08:47;7.07;;;3.13;;
80675;SDS011;70041;46.088;18.268;2023-05-19T14:11:16;6.60;;;3.40;;
80675;SDS011;70041;46.088;18.268;2023-05-19T14:13:46;6.70;;;3.55;;
80675;SDS011;70041;46.088;18.268;2023-05-19T14:16:14;8.37;;;3.67;;
80675;SDS011;70041;46.088;18.268;2023-05-19T14:18:39;5.93;;;3.58;;
80675;SDS011;70041;46.088;18.268;2023-05-19T14:21:05;6.13;;;3.30;;
80675;SDS011;70041;46.088;18.268;2023-05-19T14:23:30;5.93;;;3.47;;
80675;SDS011;70041;46.088;18.268;2023-05-19T14:25:56;6.87;;;3.50;;
80675;SDS011;70041;46.088;18.268;2023-05-19T14:28:21;8.87;;;3.47;;
80675;SDS011;70041;46.088;18.268;2023-05-19T14:30:47;6.50;;;3.23;;
80675;SDS011;70041;46.088;18.268;2023-05-19T14:33:12;7.25;;;3.40;;
80675;SDS011;70041;46.088;18.268;2023-05-19T14:35:38;7.70;;;3.20;;
80675;SDS011;70041;46.088;18.268;2023-05-19T14:38:03;5.93;;;3.00;;
80675;SDS011;70041;46.088;18.268;2023-05-19T14:40:28;8.93;;;3.57;;
80675;SDS011;70041;46.088;18.268;2023-05-19T14:42:54;6.57;;;3.33;;
80675;SDS011;70041;46.088;18.268;2023-05-19T14:45:20;7.80;;;3.40;;
80675;SDS011;70041;46.088;18.268;2023-05-19T14:47:45;7.90;;;3.40;;
80675;SDS011;70041;46.088;18.268;2023-05-19T14:50:11;7.57;;;3.58;;
80675;SDS011;70041;46.088;18.268;2023-05-19T14:52:36;5.83;;;3.20;;
80675;SDS011;70041;46.088;18.268;2023-05-19T14:55:01;6.27;;;3.33;;
80675;SDS011;70041;46.088;18.268;2023-05-19T14:57:27;6.13;;;3.40;;
80675;SDS011;70041;46.088;18.268;2023-05-19T14:59:52;6.95;;;3.90;;
80675;SDS011;70041;46.088;18.268;2023-05-19T15:02:18;7.07;;;3.47;;
80675;SDS011;70041;46.088;18.268;2023-05-19T15:04:46;7.20;;;3.60;;
80675;SDS011;70041;46.088;18.268;2023-05-19T15:07:12;8.52;;;3.58;;